Time;durP1;ratioP1;P1;durP2;ratioP2;P2;SDS_P1;SDS_P2;PMS_P1;PMS_P2;Temp;Humidity;BMP_temperature;BMP_pressure;BME280_temperature;BME280_humidity;BME280_pressure;Samples;Min_cycle;Max_cycle;Signal;HPM_P1;HPM_P2
2021/11/10 00:01:56;;;;;;;;;;;;;;;-6.12;100.00;101360.25;1747017;82;20267;-70
2021/11/10 00:04:23;;;;;;;;;;;;;;;-6.04;100.00;101360.57;1744868;81;20113;-68
2021/11/10 00:06:50;;;;;;;;;;;;;;;-5.98;100.00;101366.33;1742625;82;20106;-68
2021/11/10 00:09:19;;;;;;;;;;;;;;;-5.95;100.00;101370.90;1743273;82;21873;-68
2021/11/10 00:11:45;;;;;;;;;;;;;;;-5.87;100.00;101371.66;1747292;81;20148;-68
2021/11/10 00:14:12;;;;;;;;;;;;;;;-5.78;100.00;101368.87;1744357;81;20499;-69
2021/11/10 00:16:41;;;;;;;;;;;;;;;-5.74;100.00;101375.11;1741966;82;20146;-69
2021/11/10 00:19:09;;;;;;;;;;;;;;;-5.70;100.00;101382.30;1742119;81;20114;-69
2021/11/10 00:21:36;;;;;;;;;;;;;;;-5.69;100.00;101386.09;1742336;82;21077;-70
2021/11/10 00:24:02;;;;;;;;;;;;;;;-5.69;100.00;101387.41;1742061;81;20185;-69
2021/11/10 00:26:29;;;;;;;;;;;;;;;-5.75;100.00;101393.06;1744972;82;20089;-70
2021/11/10 00:28:56;;;;;;;;;;;;;;;-5.88;100.00;101385.66;1743271;82;20133;-71
2021/11/10 00:31:23;;;;;;;;;;;;;;;-6.02;100.00;101391.02;1743324;82;20153;-68
2021/11/10 00:33:51;;;;;;;;;;;;;;;-6.13;100.00;101387.79;1742549;81;21118;-68
2021/11/10 00:36:18;;;;;;;;;;;;;;;-6.22;100.00;101391.00;1743156;82;20138;-68
2021/11/10 00:38:44;;;;;;;;;;;;;;;-6.34;100.00;101403.11;1743120;82;20514;-68
2021/11/10 00:41:11;;;;;;;;;;;;;;;-6.47;100.00;101405.21;1742791;82;20110;-68
2021/11/10 00:43:38;;;;;;;;;;;;;;;-6.56;100.00;101416.71;1743099;82;20221;-69
2021/11/10 00:46:05;;;;;;;;;;;;;;;-6.63;100.00;101414.95;1744190;82;21207;-68
2021/11/10 00:48:31;;;;;;;;;;;;;;;-6.63;100.00;101414.11;1743238;81;20149;-69
2021/11/10 00:50:59;;;;;;;;;;;;;;;-6.66;100.00;101415.59;1742134;81;20256;-69
2021/11/10 00:53:25;;;;;;;;;;;;;;;-6.73;100.00;101412.08;1742040;82;20200;-68
2021/11/10 00:55:52;;;;;;;;;;;;;;;-6.79;100.00;101404.61;1742130;82;20236;-68
2021/11/10 00:58:19;;;;;;;;;;;;;;;-6.80;100.00;101399.03;1755039;80;21100;-68
2021/11/10 01:00:48;;;;;;;;;;;;;;;-6.77;100.00;101414.97;1759257;80;20159;-68
2021/11/10 01:03:14;;;;;;;;;;;;;;;-6.80;100.00;101418.61;1765726;80;20148;-68
2021/11/10 01:05:41;;;;;;;;;;;;;;;-6.86;100.00;101412.45;1762231;80;20091;-68
2021/11/10 01:08:08;;;;;;;;;;;;;;;-6.87;100.00;101396.43;1762399;80;20104;-68
2021/11/10 01:10:35;;;;;;;;;;;;;;;-6.82;100.00;101386.53;1763562;80;21137;-68
2021/11/10 01:13:04;;;;;;;;;;;;;;;-6.80;100.00;101398.20;1769088;80;20147;-68
2021/11/10 01:15:30;;;;;;;;;;;;;;;-6.81;100.00;101405.20;1773490;80;20155;-67
2021/11/10 01:17:57;;;;;;;;;;;;;;;-6.80;100.00;101399.50;1699645;83;20217;-68
2021/11/10 01:20:24;;;;;;;;;;;;;;;-6.83;100.00;101397.09;1749954;80;20169;-68
2021/11/10 01:22:51;;;;;;;;;;;;;;;-6.85;100.00;101400.27;1751849;82;21046;-69
2021/11/10 01:25:19;;;;;;;;;;;;;;;-6.88;100.00;101397.82;1751633;81;20615;-70
2021/11/10 01:27:45;;;;;;;;;;;;;;;-6.90;100.00;101408.38;1748214;80;20173;-69
2021/11/10 01:30:13;;;;;;;;;;;;;;;-6.92;100.00;101405.85;1746355;80;20209;-68
2021/11/10 01:32:41;;;;;;;;;;;;;;;-6.92;100.00;101408.94;1751690;80;20096;-68
2021/11/10 01:35:08;;;;;;;;;;;;;;;-6.94;100.00;101405.58;1752039;80;21073;-68
2021/11/10 01:37:37;;;;;;;;;;;;;;;-6.93;100.00;101400.75;1752220;80;20097;-69
2021/11/10 01:40:06;;;;;;;;;;;;;;;-6.96;100.00;101398.30;1752464;82;20093;-69
2021/11/10 01:42:39;;;;;;;;;;;;;;;-7.02;100.00;101397.39;1752270;82;20469;-69
2021/11/10 01:45:07;;;;;;;;;;;;;;;-7.12;100.00;101398.42;1747968;82;20114;-69
2021/11/10 01:47:34;;;;;;;;;;;;;;;-7.17;100.00;101404.39;1751400;82;21130;-69
2021/11/10 01:50:07;;;;;;;;;;;;;;;-7.13;100.00;101405.42;1750247;80;20414;-69
2021/11/10 01:52:35;;;;;;;;;;;;;;;-7.16;100.00;101402.98;1763849;81;20462;-69
2021/11/10 01:55:04;;;;;;;;;;;;;;;-7.14;100.00;101406.81;1757183;80;20461;-69
2021/11/10 01:57:31;;;;;;;;;;;;;;;-7.14;100.00;101416.78;1756714;81;20211;-70
2021/11/10 02:00:04;;;;;;;;;;;;;;;-7.22;100.00;101420.33;1753418;80;20116;-69
2021/11/10 02:02:34;;;;;;;;;;;;;;;-7.25;100.00;101408.78;1738631;81;20138;-69
2021/11/10 02:05:04;;;;;;;;;;;;;;;-7.20;100.00;101413.25;1726226;83;20097;-70
2021/11/10 02:07:34;;;;;;;;;;;;;;;-7.20;100.00;101412.39;1725997;83;21262;-69
2021/11/10 02:10:03;;;;;;;;;;;;;;;-7.25;100.00;101421.83;1698567;84;20218;-69
2021/11/10 02:12:29;;;;;;;;;;;;;;;-7.28;100.00;101420.69;1724532;83;21150;-69
2021/11/10 02:14:58;;;;;;;;;;;;;;;-7.24;100.00;101421.36;1726004;82;20128;-69
2021/11/10 02:17:25;;;;;;;;;;;;;;;-7.24;100.00;101418.75;1725778;82;20101;-69
2021/11/10 02:19:54;;;;;;;;;;;;;;;-7.25;100.00;101430.10;1707558;83;20114;-70
2021/11/10 02:22:25;;;;;;;;;;;;;;;-7.34;100.00;101430.20;1708249;82;20108;-71
2021/11/10 02:24:52;;;;;;;;;;;;;;;-7.39;100.00;101440.08;1713447;82;21153;-69
2021/11/10 02:27:22;;;;;;;;;;;;;;;-7.43;100.00;101442.48;1700099;82;20103;-69
2021/11/10 02:29:49;;;;;;;;;;;;;;;-7.45;100.00;101446.95;1717036;82;20084;-69
2021/11/10 02:32:17;;;;;;;;;;;;;;;-7.46;100.00;101451.80;1723734;83;20196;-71
2021/11/10 02:34:46;;;;;;;;;;;;;;;-7.50;100.00;101447.22;1713031;82;20117;-70
2021/11/10 02:37:14;;;;;;;;;;;;;;;-7.44;100.00;101448.17;1724223;83;21725;-69
2021/11/10 02:39:41;;;;;;;;;;;;;;;-7.40;100.00;101453.59;1720591;82;20465;-70
2021/11/10 02:42:07;;;;;;;;;;;;;;;-7.46;100.00;101457.86;1707509;82;20143;-70
2021/11/10 02:44:34;;;;;;;;;;;;;;;-7.55;100.00;101447.48;1698069;82;20138;-69
2021/11/10 02:47:01;;;;;;;;;;;;;;;-7.69;100.00;101437.05;1720841;83;20079;-70
2021/11/10 02:49:29;;;;;;;;;;;;;;;-7.79;100.00;101439.36;1698359;82;21148;-69
2021/11/10 02:52:04;;;;;;;;;;;;;;;-7.90;100.00;101437.83;1697766;84;20417;-70
2021/11/10 02:54:34;;;;;;;;;;;;;;;-8.01;100.00;101448.02;1698801;82;20158;-69
2021/11/10 02:57:03;;;;;;;;;;;;;;;-8.06;100.00;101450.05;1708727;83;20100;-70
2021/11/10 02:59:33;;;;;;;;;;;;;;;-8.06;100.00;101452.21;1727932;83;20495;-69
2021/11/10 03:02:01;;;;;;;;;;;;;;;-8.02;100.00;101453.70;1727844;82;21157;-69
2021/11/10 03:04:35;;;;;;;;;;;;;;;-7.98;100.00;101456.52;1730129;83;20176;-69
2021/11/10 03:07:04;;;;;;;;;;;;;;;-7.91;100.00;101454.84;1730889;83;20124;-69
2021/11/10 03:09:35;;;;;;;;;;;;;;;-7.87;100.00;101436.80;1729540;82;20465;-70
2021/11/10 03:12:06;;;;;;;;;;;;;;;-7.77;100.00;101429.66;1728741;83;20155;-69
2021/11/10 03:14:35;;;;;;;;;;;;;;;-7.70;100.00;101431.92;1708239;83;21207;-69
2021/11/10 03:17:04;;;;;;;;;;;;;;;-7.66;100.00;101424.30;1732825;82;20178;-70
2021/11/10 03:19:32;;;;;;;;;;;;;;;-7.60;100.00;101401.75;1728726;83;20163;-69
2021/11/10 03:21:58;;;;;;;;;;;;;;;-7.63;100.00;101407.16;1728653;83;20093;-69
2021/11/10 03:24:25;;;;;;;;;;;;;;;-7.74;100.00;101416.06;1728967;83;20101;-70
2021/11/10 03:26:53;;;;;;;;;;;;;;;-7.84;100.00;101424.89;1728502;83;21153;-70
2021/11/10 03:29:22;;;;;;;;;;;;;;;-7.88;100.00;101419.03;1733579;82;20453;-70
2021/11/10 03:31:49;;;;;;;;;;;;;;;-7.78;100.00;101412.34;1729674;83;20207;-69
2021/11/10 03:34:16;;;;;;;;;;;;;;;-7.72;100.00;101424.17;1728837;83;20080;-69
2021/11/10 03:36:44;;;;;;;;;;;;;;;-7.73;100.00;101426.42;1728789;83;20128;-70
2021/11/10 03:39:12;;;;;;;;;;;;;;;-7.76;100.00;101422.70;1728616;83;21158;-69
2021/11/10 03:41:42;;;;;;;;;;;;;;;-7.66;100.00;101432.12;1728643;83;20467;-70
2021/11/10 03:44:09;;;;;;;;;;;;;;;-7.62;100.00;101433.59;1728874;83;20116;-69
2021/11/10 03:46:38;;;;;;;;;;;;;;;-7.61;100.00;101432.22;1728763;83;20811;-70
2021/11/10 03:49:06;;;;;;;;;;;;;;;-7.55;100.00;101433.14;1732493;83;20146;-70
2021/11/10 03:51:33;;;;;;;;;;;;;;;-7.45;100.00;101432.13;1704825;83;21145;-69
2021/11/10 03:54:01;;;;;;;;;;;;;;;-7.34;100.00;101431.52;1700900;84;20097;-70
2021/11/10 03:56:29;;;;;;;;;;;;;;;-7.22;100.00;101446.42;1700385;83;20167;-71
2021/11/10 03:58:56;;;;;;;;;;;;;;;-7.14;100.00;101436.35;1707318;83;20114;-70
2021/11/10 04:01:24;;;;;;;;;;;;;;;-7.07;100.00;101445.12;1707330;83;20114;-69
2021/11/10 04:03:51;;;;;;;;;;;;;;;-7.03;100.00;101447.47;1704405;83;21162;-69
2021/11/10 04:06:19;;;;;;;;;;;;;;;-6.99;100.00;101450.23;1703606;84;20434;-71
2021/11/10 04:08:48;;;;;;;;;;;;;;;-6.96;100.00;101438.77;1696340;84;20450;-69
2021/11/10 04:11:14;;;;;;;;;;;;;;;-6.91;100.00;101436.27;1707332;84;20160;-70
2021/11/10 04:13:43;;;;;;;;;;;;;;;-6.91;100.00;101438.02;1707617;83;20154;-69
2021/11/10 04:16:09;;;;;;;;;;;;;;;-6.91;100.00;101432.80;1705615;84;21157;-70
2021/11/10 04:18:36;;;;;;;;;;;;;;;-6.91;100.00;101438.02;1707542;84;20125;-69
2021/11/10 04:21:07;;;;;;;;;;;;;;;-6.94;100.00;101434.30;1708490;83;20399;-70
2021/11/10 04:23:35;;;;;;;;;;;;;;;-6.94;100.00;101435.59;1707418;84;20117;-70
2021/11/10 04:26:04;;;;;;;;;;;;;;;-6.93;100.00;101424.24;1701926;84;20101;-70
2021/11/10 04:28:31;;;;;;;;;;;;;;;-6.94;100.00;101425.16;1701033;83;21786;-69
2021/11/10 04:30:58;;;;;;;;;;;;;;;-6.93;100.00;101421.16;1669953;84;20104;-69
2021/11/10 04:33:25;;;;;;;;;;;;;;;-6.95;100.00;101406.05;1700608;83;20352;-69
2021/11/10 04:35:54;;;;;;;;;;;;;;;-6.95;100.00;101398.69;1704598;83;20668;-70
2021/11/10 04:38:21;;;;;;;;;;;;;;;-6.90;100.00;101405.77;1708259;84;20420;-70
2021/11/10 04:40:52;;;;;;;;;;;;;;;-6.84;100.00;101399.31;1696165;84;21123;-70
2021/11/10 04:43:19;;;;;;;;;;;;;;;-6.81;100.00;101397.37;1697097;84;20125;-70
2021/11/10 04:45:52;;;;;;;;;;;;;;;-6.76;100.00;101404.88;1700219;83;20120;-69
2021/11/10 04:48:16;;;;;;;;;;;;;;;-6.73;100.00;101403.41;1700348;84;20422;-69
2021/11/10 04:50:44;;;;;;;;;;;;;;;-6.72;100.00;101399.37;1707372;81;20137;-70
2021/11/10 04:53:12;;;;;;;;;;;;;;;-6.72;100.00;101407.69;1690174;83;20782;-69
2021/11/10 04:55:42;;;;;;;;;;;;;;;-6.69;100.00;101408.34;1671985;83;20095;-69
2021/11/10 04:58:10;;;;;;;;;;;;;;;-6.59;100.00;101411.22;1669150;86;20076;-70
2021/11/10 05:00:39;;;;;;;;;;;;;;;-6.52;100.00;101416.86;1678685;83;20155;-70
2021/11/10 05:03:07;;;;;;;;;;;;;;;-6.45;100.00;101420.77;1672123;83;20120;-70
2021/11/10 05:05:35;;;;;;;;;;;;;;;-6.40;100.00;101420.00;1684404;83;20558;-69
2021/11/10 05:08:03;;;;;;;;;;;;;;;-6.37;100.00;101418.97;1714554;83;20161;-70
2021/11/10 05:10:30;;;;;;;;;;;;;;;-6.31;100.00;101429.87;1710861;83;20078;-69
2021/11/10 05:12:59;;;;;;;;;;;;;;;-6.26;100.00;101431.72;1711436;83;20162;-70
2021/11/10 05:15:26;;;;;;;;;;;;;;;-6.22;100.00;101440.22;1715707;83;20082;-70
2021/11/10 05:17:53;;;;;;;;;;;;;;;-6.17;100.00;101461.67;1714561;83;21159;-70
2021/11/10 05:20:21;;;;;;;;;;;;;;;-6.10;100.00;101469.48;1676096;83;20316;-71
2021/11/10 05:22:49;;;;;;;;;;;;;;;-6.05;100.00;101464.80;1670017;83;20123;-72
2021/11/10 05:25:16;;;;;;;;;;;;;;;-6.04;100.00;101463.02;1690678;83;20087;-72
2021/11/10 05:27:42;;;;;;;;;;;;;;;-6.05;100.00;101463.48;1672281;83;20123;-69
2021/11/10 05:30:10;;;;;;;;;;;;;;;-6.04;100.00;101459.09;1669375;83;21144;-70
2021/11/10 05:32:40;;;;;;;;;;;;;;;-5.99;100.00;101458.32;1682908;83;20152;-69
2021/11/10 05:35:07;;;;;;;;;;;;;;;-5.92;100.00;101451.72;1696586;83;20146;-70
2021/11/10 05:37:34;;;;;;;;;;;;;;;-5.84;100.00;101448.13;1712869;83;20194;-69
2021/11/10 05:40:00;;;;;;;;;;;;;;;-5.68;100.00;101445.82;1710120;82;20181;-69
2021/11/10 05:42:27;;;;;;;;;;;;;;;-5.40;100.00;101447.41;1713402;83;21161;-69
2021/11/10 05:44:54;;;;;;;;;;;;;;;-5.10;100.00;101450.17;1708356;83;20435;-69
2021/11/10 05:47:20;;;;;;;;;;;;;;;-4.88;100.00;101456.07;1713457;83;20173;-68
2021/11/10 05:49:48;;;;;;;;;;;;;;;-4.64;100.00;101465.31;1681915;83;20150;-74
2021/11/10 05:52:14;;;;;;;;;;;;;;;-4.49;100.00;101467.31;1700077;83;20152;-69
2021/11/10 05:54:41;;;;;;;;;;;;;;;-4.66;100.00;101452.78;1757276;81;21176;-71
2021/11/10 05:57:12;;;;;;;;;;;;;;;-4.65;100.00;101454.00;1727187;82;20103;-69
2021/11/10 05:59:37;;;;;;;;;;;;;;;-4.38;100.00;101462.16;1748593;81;20193;-68
2021/11/10 06:02:05;;;;;;;;;;;;;;;-4.16;100.00;101458.82;1760579;81;20422;-70
2021/11/10 06:04:32;;;;;;;;;;;;;;;-3.77;100.00;101460.75;1760128;80;20223;-70
2021/11/10 06:06:58;;;;;;;;;;;;;;;-3.35;100.00;101471.63;1759362;80;21829;-70
2021/11/10 06:09:25;;;;;;;;;;;;;;;-3.00;100.00;101469.41;1760222;81;20461;-68
2021/11/10 06:11:53;;;;;;;;;;;;;;;-2.74;100.00;101467.36;1759616;80;20534;-70
2021/11/10 06:14:19;;;;;;;;;;;;;;;-2.85;100.00;101468.20;1759668;80;20564;-70
2021/11/10 06:16:46;;;;;;;;;;;;;;;-3.20;100.00;101473.56;1756116;80;20150;-68
2021/11/10 06:19:14;;;;;;;;;;;;;;;-3.55;100.00;101470.03;1748196;80;20541;-71
2021/11/10 06:21:41;;;;;;;;;;;;;;;-3.76;100.00;101459.34;1768392;80;20138;-70
2021/11/10 06:24:08;;;;;;;;;;;;;;;-3.85;100.00;101459.18;1757104;80;20209;-69
2021/11/10 06:26:34;;;;;;;;;;;;;;;-3.92;100.00;101449.61;1756377;81;20161;-70
2021/11/10 06:29:01;;;;;;;;;;;;;;;-4.00;100.00;101441.47;1757709;81;20172;-70
2021/11/10 06:31:31;;;;;;;;;;;;;;;-4.11;100.00;101433.92;1757551;80;20156;-70
2021/11/10 06:33:58;;;;;;;;;;;;;;;-4.16;100.00;101428.18;1775278;80;20131;-70
2021/11/10 06:36:26;;;;;;;;;;;;;;;-4.22;100.00;101429.92;1760995;81;20156;-71
2021/11/10 06:38:52;;;;;;;;;;;;;;;-4.25;100.00;101434.09;1761064;80;20163;-69
2021/11/10 06:41:19;;;;;;;;;;;;;;;-4.20;100.00;101433.76;1761063;80;20148;-69
2021/11/10 06:43:47;;;;;;;;;;;;;;;-4.12;100.00;101432.71;1757539;81;21148;-70
2021/11/10 06:46:14;;;;;;;;;;;;;;;-4.08;100.00;101434.17;1759230;81;20231;-69
2021/11/10 06:48:41;;;;;;;;;;;;;;;-4.05;100.00;101436.56;1778661;80;20536;-71
2021/11/10 06:51:07;;;;;;;;;;;;;;;-3.98;100.00;101443.52;1725808;80;20476;-70
2021/11/10 06:53:34;;;;;;;;;;;;;;;-3.92;100.00;101441.73;1699765;84;20173;-70
2021/11/10 06:56:01;;;;;;;;;;;;;;;-3.82;100.00;101451.07;1741407;81;21143;-70
2021/11/10 06:58:28;;;;;;;;;;;;;;;-3.66;100.00;101454.23;1720766;82;20139;-69
2021/11/10 07:00:55;;;;;;;;;;;;;;;-3.52;100.00;101458.47;1748285;81;20145;-70
2021/11/10 07:03:23;;;;;;;;;;;;;;;-3.49;100.00;101431.48;1769048;80;20166;-70
2021/11/10 07:05:50;;;;;;;;;;;;;;;-3.52;100.00;101413.35;1745381;82;20135;-70
2021/11/10 07:08:17;;;;;;;;;;;;;;;-3.58;100.00;101443.16;1745082;81;21840;-71
2021/11/10 07:10:44;;;;;;;;;;;;;;;-3.60;100.00;101452.94;1743277;81;20333;-69
2021/11/10 07:13:11;;;;;;;;;;;;;;;-3.55;100.00;101453.42;1727193;82;20183;-70
2021/11/10 07:15:37;;;;;;;;;;;;;;;-3.30;100.00;101457.19;1724524;82;20636;-69
2021/11/10 07:18:04;;;;;;;;;;;;;;;-2.71;100.00;101466.66;1752987;81;20209;-69
2021/11/10 07:20:30;;;;;;;;;;;;;;;-2.02;100.00;101472.96;1706426;82;21501;-70
2021/11/10 07:22:59;;;;;;;;;;;;;;;-1.40;100.00;101468.72;1748622;82;20158;-69
2021/11/10 07:25:27;;;;;;;;;;;;;;;-0.72;100.00;101467.75;1695411;83;20085;-70
2021/11/10 07:27:54;;;;;;;;;;;;;;;-0.36;100.00;101454.13;1735669;82;20108;-70
2021/11/10 07:30:21;;;;;;;;;;;;;;;-0.28;100.00;101419.97;1752220;80;20131;-71
2021/11/10 07:32:47;;;;;;;;;;;;;;;-0.23;100.00;101431.77;1750407;80;21147;-70
2021/11/10 07:35:15;;;;;;;;;;;;;;;0.15;100.00;101449.11;1742052;82;20147;-71
2021/11/10 07:37:45;;;;;;;;;;;;;;;0.29;100.00;101457.91;1744000;81;20173;-69
2021/11/10 07:40:12;;;;;;;;;;;;;;;0.73;100.00;101466.69;1740475;82;21206;-68
2021/11/10 07:42:39;;;;;;;;;;;;;;;1.20;100.00;101469.31;1744243;80;20132;-69
2021/11/10 07:45:22;;;;;;;;;;;;;;;1.44;100.00;101470.12;1722474;83;21177;-69
2021/11/10 07:47:48;;;;;;;;;;;;;;;1.77;100.00;101472.66;1722238;83;20097;-69
2021/11/10 07:50:23;;;;;;;;;;;;;;;1.66;100.00;101467.55;1722568;83;20097;-70
2021/11/10 07:52:50;;;;;;;;;;;;;;;1.25;100.00;101473.20;1726427;83;20096;-66
2021/11/10 07:55:16;;;;;;;;;;;;;;;1.25;100.00;101467.06;1751748;81;20203;-68
2021/11/10 07:57:43;;;;;;;;;;;;;;;1.20;100.00;101465.34;1744788;81;21058;-69
2021/11/10 08:00:15;;;;;;;;;;;;;;;1.45;100.00;101468.66;1751426;82;20113;-68
2021/11/10 08:02:43;;;;;;;;;;;;;;;1.80;97.08;101463.58;1751166;80;20157;-69
2021/11/10 08:05:10;;;;;;;;;;;;;;;2.01;98.57;101472.55;1724793;80;20144;-66
2021/11/10 08:07:37;;;;;;;;;;;;;;;2.14;96.44;101471.70;1724305;82;20170;-69
2021/11/10 08:10:06;;;;;;;;;;;;;;;2.34;94.26;101469.22;1722370;81;20198;-68
2021/11/10 08:12:33;;;;;;;;;;;;;;;2.06;90.82;101471.63;1721802;81;20136;-70
2021/11/10 08:15:00;;;;;;;;;;;;;;;1.87;91.38;101464.16;1713086;83;20081;-69
2021/11/10 08:17:28;;;;;;;;;;;;;;;1.60;90.23;101470.31;1713028;83;20121;-70
2021/11/10 08:19:54;;;;;;;;;;;;;;;1.85;89.39;101464.78;1719969;83;20466;-71
2021/11/10 08:22:21;;;;;;;;;;;;;;;2.03;89.58;101474.56;1725086;83;21783;-65
2021/11/10 08:24:51;;;;;;;;;;;;;;;2.37;88.71;101477.35;1724617;83;20439;-68
2021/11/10 08:27:19;;;;;;;;;;;;;;;2.14;86.12;101483.62;1729789;82;20094;-69
2021/11/10 08:29:46;;;;;;;;;;;;;;;2.43;85.51;101482.56;1749562;81;20186;-69
2021/11/10 08:32:13;;;;;;;;;;;;;;;2.54;84.18;101488.42;1727717;82;20144;-68
2021/11/10 08:34:40;;;;;;;;;;;;;;;2.63;82.14;101483.20;1721970;83;21190;-67
2021/11/10 08:37:07;;;;;;;;;;;;;;;3.04;83.24;101495.39;1706336;83;20097;-68
2021/11/10 08:39:34;;;;;;;;;;;;;;;3.23;80.26;101487.20;1723685;81;20172;-67
2021/11/10 08:42:04;;;;;;;;;;;;;;;3.08;78.34;101480.33;1724349;81;20141;-67
2021/11/10 08:44:33;;;;;;;;;;;;;;;2.86;78.54;101487.00;1722075;83;20502;-68
2021/11/10 08:47:02;;;;;;;;;;;;;;;3.06;78.54;101499.55;1724091;83;21199;-69
2021/11/10 08:49:28;;;;;;;;;;;;;;;3.03;77.03;101501.70;1724584;82;20200;-69
2021/11/10 08:51:54;;;;;;;;;;;;;;;3.00;78.48;101502.84;1675443;84;20262;-66
2021/11/10 08:54:25;;;;;;;;;;;;;;;3.13;76.98;101500.59;1724441;82;20108;-67
2021/11/10 08:56:55;;;;;;;;;;;;;;;3.35;77.53;101479.30;1717676;81;20200;-69
2021/11/10 08:59:21;;;;;;;;;;;;;;;3.48;74.52;101468.27;1708422;83;21194;-69
2021/11/10 09:01:54;;;;;;;;;;;;;;;3.18;74.80;101471.76;1717914;81;20135;-71
2021/11/10 09:04:22;;;;;;;;;;;;;;;3.04;74.01;101471.05;1711566;84;20134;-70
2021/11/10 09:06:49;;;;;;;;;;;;;;;3.24;73.48;101476.95;1711876;84;20680;-68
2021/11/10 09:09:17;;;;;;;;;;;;;;;3.27;73.59;101480.60;1711024;83;20141;-69
2021/11/10 09:11:46;;;;;;;;;;;;;;;3.20;73.36;101475.59;1710759;83;20164;-72
2021/11/10 09:14:14;;;;;;;;;;;;;;;3.37;72.82;101476.50;1711393;83;20145;-70
2021/11/10 09:16:41;;;;;;;;;;;;;;;3.64;71.59;101478.92;1718355;83;20127;-65
2021/11/10 09:19:09;;;;;;;;;;;;;;;3.68;69.81;101478.63;1729858;83;20120;-71
2021/11/10 09:21:36;;;;;;;;;;;;;;;3.75;67.88;101475.62;1727496;83;20208;-70
2021/11/10 09:24:05;;;;;;;;;;;;;;;3.79;64.50;101480.95;1705180;83;21170;-70
2021/11/10 09:26:35;;;;;;;;;;;;;;;3.81;64.69;101484.29;1724604;83;20518;-68
2021/11/10 09:29:02;;;;;;;;;;;;;;;3.72;62.77;101478.11;1721950;83;20210;-69
2021/11/10 09:31:29;;;;;;;;;;;;;;;3.75;63.43;101476.48;1711777;84;20232;-70
2021/11/10 09:34:03;;;;;;;;;;;;;;;3.95;64.17;101471.70;1716987;83;20216;-69
2021/11/10 09:36:26;;;;;;;;;;;;;;;4.14;63.01;101467.07;1724201;83;21320;-73
2021/11/10 09:39:02;;;;;;;;;;;;;;;4.55;63.20;101474.56;1724060;82;20681;-72
2021/11/10 09:41:41;;;;;;;;;;;;;;;4.64;60.26;101468.75;1679467;83;20187;-72
2021/11/10 09:44:28;;;;;;;;;;;;;;;4.16;59.78;101461.92;1724517;83;20188;-71
2021/11/10 09:46:56;;;;;;;;;;;;;;;3.99;59.32;101460.23;1724325;83;20161;-69
2021/11/10 09:49:22;;;;;;;;;;;;;;;4.35;59.52;101454.63;1724192;83;21151;-69
2021/11/10 09:51:50;;;;;;;;;;;;;;;4.59;61.03;101457.78;1725741;83;20164;-71
2021/11/10 09:54:17;;;;;;;;;;;;;;;4.95;58.62;101460.89;1712147;83;20204;-69
2021/11/10 09:56:45;;;;;;;;;;;;;;;4.93;58.04;101465.03;1719946;83;20450;-71
2021/11/10 09:59:25;;;;;;;;;;;;;;;4.68;56.58;101456.78;1719377;83;20122;-70
2021/11/10 10:01:52;;;;;;;;;;;;;;;4.77;57.16;101456.25;1712705;83;21842;-69
2021/11/10 10:04:18;;;;;;;;;;;;;;;4.98;55.75;101459.20;1712353;83;20343;-69
2021/11/10 10:06:46;;;;;;;;;;;;;;;4.89;54.87;101458.39;1712718;82;20166;-71
2021/11/10 10:09:13;;;;;;;;;;;;;;;4.66;55.31;101446.30;1712663;83;20221;-71
2021/11/10 10:11:40;;;;;;;;;;;;;;;4.74;54.47;101449.44;1712661;83;20149;-72
2021/11/10 10:14:07;;;;;;;;;;;;;;;4.81;53.87;101445.61;1712391;83;21170;-69
2021/11/10 10:16:35;;;;;;;;;;;;;;;4.90;53.48;101436.11;1712537;83;20109;-72
2021/11/10 10:19:11;;;;;;;;;;;;;;;4.87;52.78;101444.41;1713057;83;20208;-70
2021/11/10 10:21:41;;;;;;;;;;;;;;;5.13;52.56;101439.37;1708827;83;20179;-71
2021/11/10 10:24:14;;;;;;;;;;;;;;;5.17;51.22;101434.04;1671333;85;20151;-72
2021/11/10 10:26:41;;;;;;;;;;;;;;;5.57;51.51;101429.52;1705504;83;21222;-71
2021/11/10 10:29:10;;;;;;;;;;;;;;;5.65;51.05;101422.80;1699339;83;20214;-69
2021/11/10 10:31:38;;;;;;;;;;;;;;;5.93;50.08;101415.14;1777428;80;20108;-69
2021/11/10 10:34:08;;;;;;;;;;;;;;;5.54;50.72;101421.89;1767709;80;20159;-70
2021/11/10 10:36:37;;;;;;;;;;;;;;;5.76;49.68;101422.92;1771297;80;20141;-70
2021/11/10 10:39:11;;;;;;;;;;;;;;;5.43;48.57;101418.27;1773908;81;21800;-69
2021/11/10 10:41:40;;;;;;;;;;;;;;;5.40;48.68;101426.11;1759650;80;20151;-72
2021/11/10 10:44:09;;;;;;;;;;;;;;;5.37;48.07;101417.14;1771305;81;20168;-69
2021/11/10 10:46:38;;;;;;;;;;;;;;;5.35;47.82;101417.81;1766794;80;20097;-70
2021/11/10 10:49:20;;;;;;;;;;;;;;;5.54;46.65;101420.55;1763065;81;20480;-69
2021/11/10 10:51:54;;;;;;;;;;;;;;;5.63;46.50;101422.66;1769395;80;21119;-68
2021/11/10 10:54:28;;;;;;;;;;;;;;;5.47;45.63;101418.26;1782719;80;20092;-65
2021/11/10 10:56:59;;;;;;;;;;;;;;;5.80;45.14;101416.22;1781678;80;20147;-69
2021/11/10 10:59:29;;;;;;;;;;;;;;;5.72;44.00;101410.44;1782631;80;20149;-70
2021/11/10 11:02:00;;;;;;;;;;;;;;;6.17;43.63;101410.16;1782568;80;20474;-69
2021/11/10 11:04:29;;;;;;;;;;;;;;;6.48;42.78;101411.05;1782155;80;21182;-70
2021/11/10 11:07:01;;;;;;;;;;;;;;;6.28;40.59;101414.73;1771864;80;20459;-68
2021/11/10 11:09:35;;;;;;;;;;;;;;;6.03;40.44;101408.75;1751668;81;20197;-70
2021/11/10 11:12:12;;;;;;;;;;;;;;;6.50;41.01;101410.37;1751378;82;20193;-71
2021/11/10 11:14:45;;;;;;;;;;;;;;;6.34;41.06;101403.34;1748549;80;20154;-74
2021/11/10 11:17:21;;;;;;;;;;;;;;;6.16;39.54;101407.16;1755737;80;20138;-69
2021/11/10 11:20:02;;;;;;;;;;;;;;;6.11;40.63;101408.20;1757216;80;20145;-71
2021/11/10 11:22:48;;;;;;;;;;;;;;;6.20;39.29;101398.31;1760319;80;20201;-74
2021/11/10 11:25:25;;;;;;;;;;;;;;;6.08;39.45;101396.56;1751773;82;20203;-70
2021/11/10 11:28:06;;;;;;;;;;;;;;;6.32;39.65;101406.68;1753590;80;20134;-71
2021/11/10 11:30:36;;;;;;;;;;;;;;;6.42;39.01;101397.44;1753262;80;21135;-71
2021/11/10 11:33:10;;;;;;;;;;;;;;;6.29;39.14;101396.38;1779751;80;20142;-74
2021/11/10 11:35:42;;;;;;;;;;;;;;;6.18;38.46;101406.48;1764725;80;20454;-73
2021/11/10 11:38:12;;;;;;;;;;;;;;;6.42;38.98;101404.11;1782858;80;20123;-75
2021/11/10 11:40:39;;;;;;;;;;;;;;;6.35;39.87;101399.17;1782870;80;20434;-70
2021/11/10 11:43:08;;;;;;;;;;;;;;;6.61;39.13;101397.42;1781418;80;21192;-72
2021/11/10 11:45:37;;;;;;;;;;;;;;;6.81;38.65;101395.52;1779609;80;20108;-73
2021/11/10 11:48:04;;;;;;;;;;;;;;;6.51;38.77;101388.83;1766513;80;20155;-73
2021/11/10 11:50:31;;;;;;;;;;;;;;;6.78;37.95;101367.88;1765516;80;20176;-71
2021/11/10 11:52:58;;;;;;;;;;;;;;;6.39;37.59;101372.47;1770186;80;20191;-69
2021/11/10 11:55:40;;;;;;;;;;;;;;;6.36;38.00;101366.65;1777708;80;21117;-72
2021/11/10 11:58:10;;;;;;;;;;;;;;;6.48;37.64;101370.53;1751220;82;20110;-71
2021/11/10 12:00:50;;;;;;;;;;;;;;;6.40;36.90;101384.78;1750528;82;20154;-70
2021/11/10 12:03:29;;;;;;;;;;;;;;;6.30;37.41;101378.88;1777896;80;20619;-72
2021/11/10 12:06:06;;;;;;;;;;;;;;;6.02;37.28;101378.61;1758993;80;20116;-70
2021/11/10 12:09:01;;;;;;;;;;;;;;;6.16;37.28;101373.00;1765696;80;21116;-73
2021/11/10 12:11:35;;;;;;;;;;;;;;;6.06;37.27;101367.09;1775942;80;20116;-71
2021/11/10 12:14:26;;;;;;;;;;;;;;;6.12;36.42;101361.03;1782632;80;20155;-72
2021/11/10 12:20:05;;;;;;;;;;;;;;;5.91;37.00;101364.36;1630183;88;20232;-67
2021/11/10 12:22:37;;;;;;;;;;;;;;;6.31;36.72;101357.03;1630350;87;21133;-65
2021/11/10 12:25:15;;;;;;;;;;;;;;;6.51;35.98;101362.16;1556681;92;20376;-67
2021/11/10 12:27:42;;;;;;;;;;;;;;;6.36;35.45;101359.47;1549778;92;20185;-65
2021/11/10 12:30:28;;;;;;;;;;;;;;;6.10;35.96;101365.70;1557707;90;20329;-65
2021/11/10 12:32:58;;;;;;;;;;;;;;;5.98;36.33;101362.67;1546545;92;20461;-66
2021/11/10 12:35:31;;;;;;;;;;;;;;;5.83;35.83;101357.73;1533902;93;21809;-67
2021/11/10 12:37:59;;;;;;;;;;;;;;;5.81;35.94;101355.27;1539644;92;20144;-66
2021/11/10 12:40:27;;;;;;;;;;;;;;;5.72;36.86;101345.16;1559651;92;20161;-67
2021/11/10 12:43:04;;;;;;;;;;;;;;;5.77;36.23;101349.45;1560640;92;20199;-66
2021/11/10 12:45:39;;;;;;;;;;;;;;;5.64;36.04;101349.73;1560440;92;20145;-65
2021/11/10 12:48:08;;;;;;;;;;;;;;;5.73;36.58;101346.84;1560153;92;21152;-66